Time;durP1;ratioP1;P1;durP2;ratioP2;P2;SDS_P1;SDS_P2;PMS_P1;PMS_P2;Temp;Humidity;BMP_temperature;BMP_pressure;BME280_temperature;BME280_humidity;BME280_pressure;Samples;Min_cycle;Max_cycle;Signal;HPM_P1;HPM_P2
2022/05/12 00:02:18;;;;;;;8.45;2.17;;;11.90;99.90;;;;;;4913245;29;20048;-85
2022/05/12 00:04:44;;;;;;;6.60;2.00;;;11.90;99.90;;;;;;4898334;29;20040;-86
2022/05/12 00:07:09;;;;;;;6.68;1.88;;;11.80;99.90;;;;;;4915906;29;20043;-86
2022/05/12 00:09:35;;;;;;;7.15;1.90;;;11.80;99.90;;;;;;4900224;29;20046;-88
2022/05/12 00:12:00;;;;;;;8.80;2.17;;;11.70;99.90;;;;;;4933907;29;20048;-89
2022/05/12 00:14:26;;;;;;;8.35;2.35;;;11.70;99.90;;;;;;4901414;29;20045;-95
2022/05/12 00:16:54;;;;;;;6.35;1.80;;;11.60;99.90;;;;;;4906757;29;20081;-93
2022/05/12 00:19:21;;;;;;;7.13;2.35;;;11.60;99.90;;;;;;4905315;29;20126;-96
2022/05/12 00:21:47;;;;;;;8.27;1.75;;;11.60;99.90;;;;;;4906146;29;20553;-96
2022/05/12 00:24:16;;;;;;;7.32;1.90;;;11.60;99.90;;;;;;4905099;29;20055;-93
2022/05/12 00:26:42;;;;;;;4.90;1.50;;;11.60;99.90;;;;;;4938383;29;20087;-93
2022/05/12 00:29:08;;;;;;;6.50;1.60;;;11.50;99.90;;;;;;4940854;29;20068;-92
2022/05/12 00:31:36;;;;;;;5.63;1.70;;;11.50;99.90;;;;;;4924399;29;20150;-95
2022/05/12 00:34:06;;;;;;;8.05;1.65;;;11.50;99.90;;;;;;4917629;29;20481;-95
2022/05/12 00:36:33;;;;;;;7.10;1.90;;;11.40;99.90;;;;;;4920512;29;20107;-95
2022/05/12 00:38:58;;;;;;;6.95;1.80;;;11.40;99.90;;;;;;4924956;29;20040;-94
2022/05/12 00:41:26;;;;;;;6.03;1.60;;;11.40;99.90;;;;;;4913146;29;20046;-94
2022/05/12 00:43:55;;;;;;;5.40;1.70;;;11.40;99.90;;;;;;4904000;29;20047;-94
2022/05/12 00:46:28;;;;;;;6.45;1.77;;;11.30;99.90;;;;;;4906009;29;20044;-92
2022/05/12 00:48:59;;;;;;;6.43;1.60;;;11.30;99.90;;;;;;4921749;29;20406;-96
2022/05/12 00:51:32;;;;;;;6.25;1.88;;;11.30;99.90;;;;;;4920356;29;20088;-94
2022/05/12 00:54:00;;;;;;;6.32;1.80;;;11.30;99.90;;;;;;5034504;23;20058;-94
2022/05/12 00:56:26;;;;;;;7.57;2.13;;;11.20;99.90;;;;;;4959454;29;20040;-95
2022/05/12 00:59:01;;;;;;;7.20;1.80;;;11.20;99.90;;;;;;4962320;29;20070;-94
2022/05/12 01:01:27;;;;;;;4.65;1.60;;;11.20;99.90;;;;;;4944345;29;20051;-95
2022/05/12 01:03:56;;;;;;;7.53;2.13;;;11.20;99.90;;;;;;4940928;29;20047;-96
2022/05/12 01:06:22;;;;;;;8.63;2.35;;;11.10;99.90;;;;;;4956682;29;20187;-96
2022/05/12 01:08:47;;;;;;;6.18;2.00;;;11.10;99.90;;;;;;4959434;29;20087;-93
2022/05/12 01:11:17;;;;;;;4.88;1.77;;;11.10;99.90;;;;;;4923469;29;20047;-95
2022/05/12 01:13:50;;;;;;;6.43;1.65;;;11.00;99.90;;;;;;4943036;29;20051;-96
2022/05/12 01:16:42;;;;;;;6.07;1.90;;;11.00;99.90;;;;;;4958798;28;20615;-95
2022/05/12 01:19:12;;;;;;;5.80;1.63;;;11.00;99.90;;;;;;4926019;29;20053;-96
2022/05/12 01:21:38;;;;;;;6.63;1.80;;;10.90;99.90;;;;;;4945698;29;20514;-94
2022/05/12 01:24:04;;;;;;;6.28;1.90;;;10.90;99.90;;;;;;4940004;29;20047;-95
2022/05/12 01:26:31;;;;;;;5.88;1.80;;;10.80;99.90;;;;;;4958714;29;20444;-95
2022/05/12 01:28:59;;;;;;;5.38;1.67;;;10.90;99.90;;;;;;4934816;29;20047;-96
2022/05/12 01:31:25;;;;;;;6.30;1.80;;;10.80;99.90;;;;;;4949009;29;20058;-94
2022/05/12 01:33:51;;;;;;;6.15;1.95;;;10.80;99.90;;;;;;4946041;29;20035;-95
2022/05/12 01:36:19;;;;;;;7.63;1.90;;;10.80;99.90;;;;;;4961947;29;20051;-94
2022/05/12 01:38:45;;;;;;;4.80;1.77;;;10.80;99.90;;;;;;4929840;29;20039;-94
2022/05/12 01:41:10;;;;;;;6.90;1.77;;;10.70;99.90;;;;;;4940664;29;20047;-94
2022/05/12 01:43:36;;;;;;;6.38;1.77;;;10.70;99.90;;;;;;4942754;29;20047;-96
2022/05/12 01:46:02;;;;;;;5.15;1.70;;;10.70;99.90;;;;;;4956113;29;20050;-94
2022/05/12 01:48:27;;;;;;;7.13;1.80;;;10.70;99.90;;;;;;4936263;29;20048;-96
2022/05/12 01:50:53;;;;;;;5.00;1.73;;;10.70;99.90;;;;;;4940130;29;20484;-96
2022/05/12 01:53:19;;;;;;;5.40;1.60;;;10.60;99.90;;;;;;4921045;29;20054;-96
2022/05/12 01:55:48;;;;;;;5.55;1.83;;;10.60;99.90;;;;;;4933630;29;20121;-96
2022/05/12 01:58:15;;;;;;;5.90;1.90;;;10.60;99.90;;;;;;4939710;29;20051;-95
2022/05/12 02:00:40;;;;;;;5.88;1.88;;;10.50;99.90;;;;;;4945794;29;20050;-96
2022/05/12 02:03:06;;;;;;;6.07;1.67;;;10.50;99.90;;;;;;4965131;28;20103;-96
2022/05/12 02:05:34;;;;;;;4.90;2.10;;;10.40;99.90;;;;;;4957235;28;20055;-96
2022/05/12 02:08:01;;;;;;;6.53;1.88;;;10.40;99.90;;;;;;4958441;28;20054;-96
2022/05/12 02:10:30;;;;;;;5.18;2.00;;;10.40;99.90;;;;;;4962155;29;20050;-94
2022/05/12 02:12:56;;;;;;;4.40;1.70;;;10.30;99.90;;;;;;4958642;28;20122;-96
2022/05/12 02:15:22;;;;;;;5.15;1.77;;;10.30;99.90;;;;;;4959409;29;20076;-96
2022/05/12 02:17:51;;;;;;;7.20;1.98;;;10.30;99.90;;;;;;4943492;29;20074;-96
2022/05/12 02:20:20;;;;;;;6.38;2.10;;;10.20;99.90;;;;;;4942262;29;20492;-96
2022/05/12 02:22:46;;;;;;;6.75;2.10;;;10.20;99.90;;;;;;4956708;29;20047;-96
2022/05/12 02:25:12;;;;;;;5.85;2.10;;;10.10;99.90;;;;;;4955227;29;20031;-95
2022/05/12 02:27:42;;;;;;;6.35;2.15;;;10.20;99.90;;;;;;4940471;29;20094;-95
2022/05/12 02:30:10;;;;;;;6.88;2.47;;;10.10;99.90;;;;;;4942086;29;20043;-95
2022/05/12 02:32:36;;;;;;;7.68;2.50;;;10.10;99.90;;;;;;4955704;29;20047;-95
2022/05/12 02:35:02;;;;;;;7.82;2.90;;;10.10;99.90;;;;;;4941569;29;20468;-95
2022/05/12 02:37:27;;;;;;;7.88;2.28;;;10.10;99.90;;;;;;4940101;29;20050;-96
2022/05/12 02:39:54;;;;;;;6.07;2.20;;;10.00;99.90;;;;;;4923694;29;20039;-96
2022/05/12 02:42:20;;;;;;;8.77;2.45;;;10.00;99.90;;;;;;4938083;29;20058;-94
2022/05/12 02:44:45;;;;;;;8.35;2.55;;;10.00;99.90;;;;;;4920293;29;20044;-96
2022/05/12 02:47:11;;;;;;;7.63;2.60;;;10.00;99.90;;;;;;4905155;29;20378;-95
2022/05/12 02:49:37;;;;;;;5.13;2.40;;;10.00;99.90;;;;;;4942471;29;20420;-96
2022/05/12 02:52:04;;;;;;;7.00;2.40;;;10.00;99.90;;;;;;4919244;29;20134;-95
2022/05/12 02:54:30;;;;;;;8.27;2.70;;;10.00;99.90;;;;;;4940790;29;20572;-96
2022/05/12 02:56:55;;;;;;;7.55;2.60;;;9.90;99.90;;;;;;4937618;29;20043;-96
2022/05/12 02:59:22;;;;;;;6.85;2.80;;;9.90;99.90;;;;;;4936225;29;20067;-95
2022/05/12 03:01:48;;;;;;;7.78;2.63;;;9.90;99.90;;;;;;4928568;29;20057;-96
2022/05/12 03:04:14;;;;;;;9.02;2.80;;;9.90;99.90;;;;;;4947841;29;20027;-95
2022/05/12 03:06:39;;;;;;;7.97;2.90;;;9.90;99.90;;;;;;4957340;29;20074;-95
2022/05/12 03:09:06;;;;;;;7.05;3.10;;;9.90;99.90;;;;;;4937879;29;20046;-96
2022/05/12 03:11:32;;;;;;;9.95;3.00;;;9.90;99.90;;;;;;4939887;29;20404;-96
2022/05/12 03:13:59;;;;;;;7.45;3.03;;;9.80;99.90;;;;;;4938079;29;20043;-95
2022/05/12 03:16:25;;;;;;;6.80;3.13;;;9.80;99.90;;;;;;4940153;29;20035;-96
2022/05/12 03:18:53;;;;;;;7.65;2.97;;;9.80;99.90;;;;;;4925094;29;20051;-95
2022/05/12 03:21:20;;;;;;;7.18;3.20;;;9.70;99.90;;;;;;4924471;29;20067;-95
2022/05/12 03:23:47;;;;;;;7.45;3.47;;;9.70;99.90;;;;;;4954795;29;20035;-96
2022/05/12 03:26:12;;;;;;;8.93;3.78;;;9.70;99.90;;;;;;4937969;29;20035;-95
2022/05/12 03:28:39;;;;;;;8.13;3.60;;;9.70;99.90;;;;;;4955192;29;20106;-96
2022/05/12 03:31:05;;;;;;;8.27;3.63;;;9.70;99.90;;;;;;4940620;29;20154;-96
2022/05/12 03:33:31;;;;;;;8.88;3.53;;;9.70;99.90;;;;;;4939057;29;20437;-95
2022/05/12 03:35:58;;;;;;;10.88;3.92;;;9.70;99.90;;;;;;4955396;29;20106;-96
2022/05/12 03:38:24;;;;;;;8.95;3.60;;;9.70;99.90;;;;;;4937806;29;20071;-96
2022/05/12 03:40:51;;;;;;;9.65;3.65;;;9.70;99.90;;;;;;4941275;29;20053;-96
2022/05/12 03:46:02;;;;;;;11.15;4.28;;;9.60;99.90;;;;;;4971949;28;20162;-96
2022/05/12 03:48:28;;;;;;;9.80;4.20;;;9.60;99.90;;;;;;4925317;29;20054;-96
2022/05/12 03:50:53;;;;;;;8.90;4.13;;;9.60;99.90;;;;;;4938431;29;20054;-95
2022/05/12 03:53:19;;;;;;;9.65;4.00;;;9.60;99.90;;;;;;5024448;23;20055;-96
2022/05/12 03:55:45;;;;;;;9.35;4.50;;;9.60;99.90;;;;;;4961474;29;20091;-95
2022/05/12 03:58:10;;;;;;;9.85;4.10;;;9.60;99.90;;;;;;4956399;29;20118;-96
2022/05/12 04:00:38;;;;;;;10.65;4.20;;;9.60;99.90;;;;;;4968737;28;20038;-96
2022/05/12 04:06:01;;;;;;;11.45;5.20;;;9.70;99.90;;;;;;5303054;23;20050;-96
2022/05/12 04:08:27;;;;;;;10.30;4.20;;;9.70;99.90;;;;;;4961063;28;20059;-96
2022/05/12 04:10:53;;;;;;;12.25;4.40;;;9.70;99.90;;;;;;4979769;28;20043;-96
2022/05/12 04:13:19;;;;;;;11.27;4.60;;;9.60;99.90;;;;;;4964654;28;20047;-96
2022/05/12 04:15:45;;;;;;;12.23;4.28;;;9.80;99.90;;;;;;4957850;29;20047;-96
2022/05/12 04:18:10;;;;;;;9.07;4.32;;;9.80;99.90;;;;;;4958479;28;20066;-96
2022/05/12 04:20:37;;;;;;;11.68;4.60;;;9.80;99.90;;;;;;4936454;29;20043;-96
2022/05/12 04:23:06;;;;;;;13.60;4.57;;;9.90;99.90;;;;;;4957700;29;20055;-95
2022/05/12 04:25:32;;;;;;;10.55;4.35;;;9.90;99.90;;;;;;4957024;29;20035;-96
2022/05/12 04:27:58;;;;;;;11.25;4.32;;;10.00;99.90;;;;;;4970591;28;20046;-96
2022/05/12 04:30:26;;;;;;;10.32;4.40;;;10.00;99.90;;;;;;4976671;28;20038;-95
2022/05/12 04:32:52;;;;;;;11.32;4.47;;;10.10;99.90;;;;;;4975636;28;20471;-96
2022/05/12 04:35:20;;;;;;;13.52;4.95;;;10.10;99.90;;;;;;4977154;28;20082;-96
2022/05/12 04:37:52;;;;;;;12.48;4.93;;;10.10;99.90;;;;;;4958620;28;20071;-96
2022/05/12 04:40:24;;;;;;;10.32;4.32;;;10.20;99.90;;;;;;4960348;28;20506;-95
2022/05/12 04:42:52;;;;;;;12.82;5.53;;;10.20;99.90;;;;;;4996423;23;20110;-95
2022/05/12 04:45:19;;;;;;;13.00;5.28;;;10.30;99.90;;;;;;4947662;29;20047;-94
2022/05/12 04:47:45;;;;;;;10.23;4.85;;;10.40;99.90;;;;;;4942935;29;20550;-95
2022/05/12 04:50:16;;;;;;;12.88;5.63;;;10.40;99.90;;;;;;4957546;28;20046;-95
2022/05/12 04:52:42;;;;;;;10.85;5.30;;;10.50;99.90;;;;;;4926047;29;20082;-94
2022/05/12 04:55:08;;;;;;;11.73;5.47;;;10.60;99.90;;;;;;4958666;29;20043;-93
2022/05/12 04:57:38;;;;;;;14.43;5.28;;;10.70;99.90;;;;;;4935559;28;20043;-96
2022/05/12 05:00:06;;;;;;;10.75;5.10;;;10.70;99.90;;;;;;4958330;29;20047;-91
2022/05/12 05:02:32;;;;;;;12.65;5.45;;;10.80;99.90;;;;;;4951718;29;20043;-91
2022/05/12 05:04:58;;;;;;;11.43;5.65;;;10.80;99.90;;;;;;4930057;29;20051;-93
2022/05/12 05:07:26;;;;;;;13.85;5.72;;;10.90;99.90;;;;;;4905851;29;20044;-93
2022/05/12 05:09:51;;;;;;;11.73;5.70;;;11.00;99.90;;;;;;4953630;29;20095;-95
2022/05/12 05:12:17;;;;;;;10.25;5.57;;;11.00;99.90;;;;;;4963724;29;20071;-95
2022/05/12 05:14:43;;;;;;;11.65;5.63;;;11.00;99.90;;;;;;4957489;29;20039;-93
2022/05/12 05:17:09;;;;;;;12.13;6.05;;;11.10;99.90;;;;;;4955124;23;20039;-90
2022/05/12 05:19:35;;;;;;;13.05;6.82;;;11.20;99.90;;;;;;4946554;29;20452;-93
2022/05/12 05:22:01;;;;;;;12.15;6.80;;;11.20;99.90;;;;;;4958529;29;20118;-95
2022/05/12 05:24:27;;;;;;;13.07;6.85;;;11.20;99.90;;;;;;4941794;29;20456;-95
2022/05/12 05:26:52;;;;;;;14.55;6.90;;;11.30;99.90;;;;;;4929589;29;20053;-89
2022/05/12 05:29:18;;;;;;;12.40;7.70;;;11.30;99.90;;;;;;4954083;29;20039;-87
2022/05/12 05:31:43;;;;;;;12.85;8.18;;;11.40;99.90;;;;;;4930271;29;20047;-87
2022/05/12 05:34:09;;;;;;;12.43;8.13;;;11.50;99.90;;;;;;4923543;29;20044;-91
2022/05/12 05:36:39;;;;;;;14.05;8.63;;;11.60;99.90;;;;;;4955691;29;20114;-92
2022/05/12 05:39:06;;;;;;;15.57;9.55;;;11.60;99.90;;;;;;4937644;29;20051;-90
2022/05/12 05:41:32;;;;;;;14.07;9.02;;;11.70;99.90;;;;;;4976352;28;20031;-92
2022/05/12 05:43:58;;;;;;;15.25;9.77;;;11.70;99.90;;;;;;4963955;29;20043;-92
2022/05/12 05:46:24;;;;;;;13.63;9.18;;;11.80;99.90;;;;;;4938242;29;20047;-92
2022/05/12 05:48:51;;;;;;;17.15;10.13;;;11.80;99.90;;;;;;4951236;29;20424;-92
2022/05/12 05:54:00;;;;;;;13.93;9.73;;;11.90;99.90;;;;;;4933149;29;20130;-91
2022/05/12 05:56:26;;;;;;;15.57;10.50;;;11.90;99.90;;;;;;4908819;29;20106;-91
2022/05/12 05:58:52;;;;;;;15.82;10.43;;;11.90;99.90;;;;;;4921359;29;20506;-89
2022/05/12 06:01:18;;;;;;;15.93;10.73;;;12.00;99.90;;;;;;4935740;29;20412;-90
2022/05/12 06:03:45;;;;;;;14.38;10.27;;;12.00;99.90;;;;;;4936381;29;20043;-95
2022/05/12 06:06:11;;;;;;;16.10;10.07;;;12.10;99.90;;;;;;4921540;29;20058;-91
2022/05/12 06:08:37;;;;;;;16.98;9.75;;;12.20;99.90;;;;;;4938315;29;20043;-91
2022/05/12 06:11:04;;;;;;;14.55;9.50;;;12.40;99.90;;;;;;4926218;29;20054;-92
2022/05/12 06:13:32;;;;;;;14.82;9.50;;;12.40;99.90;;;;;;4943409;29;20086;-94
2022/05/12 06:15:58;;;;;;;19.48;9.90;;;12.50;99.90;;;;;;4936610;29;20547;-94
2022/05/12 06:18:24;;;;;;;14.38;9.23;;;12.60;99.90;;;;;;4954861;29;20051;-92
2022/05/12 06:20:50;;;;;;;14.00;9.02;;;12.70;99.90;;;;;;4958179;29;20047;-94
2022/05/12 06:23:17;;;;;;;15.07;9.80;;;12.80;99.90;;;;;;4938183;29;20086;-93
2022/05/12 06:25:48;;;;;;;17.45;9.45;;;13.00;99.90;;;;;;4957493;29;20055;-94
2022/05/12 06:28:14;;;;;;;15.93;8.75;;;13.00;99.90;;;;;;4957813;29;20035;-93
2022/05/12 06:30:40;;;;;;;13.48;7.88;;;13.10;99.90;;;;;;4949878;29;20390;-93
2022/05/12 06:33:07;;;;;;;15.82;8.50;;;13.20;99.90;;;;;;4918899;29;20135;-93
2022/05/12 06:35:33;;;;;;;13.23;7.97;;;13.30;99.90;;;;;;4943331;29;20476;-91
2022/05/12 06:37:59;;;;;;;13.55;8.23;;;13.40;99.90;;;;;;4937043;29;20492;-92
2022/05/12 06:40:25;;;;;;;13.57;7.47;;;13.40;99.90;;;;;;4938490;29;20085;-90
2022/05/12 06:42:52;;;;;;;11.98;6.63;;;13.40;99.90;;;;;;4940328;29;20404;-94
2022/05/12 06:45:20;;;;;;;12.85;6.60;;;13.50;99.90;;;;;;4955961;29;20051;-94
2022/05/12 06:47:50;;;;;;;12.38;6.95;;;13.60;99.90;;;;;;4919693;29;20051;-88
2022/05/12 06:50:19;;;;;;;14.25;7.07;;;13.60;99.90;;;;;;4949465;29;20387;-90
2022/05/12 06:52:46;;;;;;;13.27;7.30;;;13.70;99.90;;;;;;4944113;29;20043;-93
2022/05/12 06:55:12;;;;;;;15.25;6.50;;;13.80;99.90;;;;;;4940567;29;20063;-90
2022/05/12 06:57:38;;;;;;;12.57;6.95;;;13.90;99.90;;;;;;4919924;29;20043;-90
2022/05/12 07:00:05;;;;;;;11.80;6.05;;;14.00;99.90;;;;;;4952662;29;20043;-91
2022/05/12 07:02:31;;;;;;;10.90;5.45;;;14.10;99.90;;;;;;4944156;29;20047;-93
2022/05/12 07:04:57;;;;;;;13.45;5.63;;;14.10;99.90;;;;;;4935745;29;20407;-93
2022/05/12 07:07:23;;;;;;;9.93;5.10;;;14.20;99.90;;;;;;4954994;29;20046;-91
2022/05/12 07:09:52;;;;;;;12.13;5.03;;;14.20;99.90;;;;;;4956698;29;20051;-95
2022/05/12 07:12:19;;;;;;;12.52;5.03;;;14.40;99.90;;;;;;4925735;29;20090;-93
2022/05/12 07:14:44;;;;;;;9.63;4.18;;;14.30;99.90;;;;;;4946669;29;20058;-96
2022/05/12 07:17:10;;;;;;;10.25;4.65;;;14.40;99.90;;;;;;4924976;29;20133;-95
2022/05/12 07:19:36;;;;;;;10.95;4.13;;;14.50;99.90;;;;;;4938114;29;20407;-94
2022/05/12 07:27:31;;;;;;;11.70;4.07;;;14.70;99.90;;;;;;4935366;29;20070;-88
2022/05/12 07:29:57;;;;;;;9.95;3.30;;;14.70;99.90;;;;;;4951500;29;20497;-89
2022/05/12 07:32:22;;;;;;;8.23;3.28;;;14.80;99.90;;;;;;4950318;29;20043;-89
2022/05/12 07:34:48;;;;;;;7.40;3.00;;;14.90;99.90;;;;;;4934325;29;20153;-88
2022/05/12 07:37:15;;;;;;;10.50;3.67;;;14.90;99.90;;;;;;4906228;29;20106;-88
2022/05/12 07:39:41;;;;;;;9.20;3.60;;;15.00;99.90;;;;;;4934613;29;20039;-88
2022/05/12 07:42:06;;;;;;;7.65;3.58;;;15.00;99.90;;;;;;4933744;29;20546;-89
2022/05/12 07:44:32;;;;;;;10.43;4.00;;;15.10;99.90;;;;;;4932689;29;20113;-91
2022/05/12 07:47:00;;;;;;;9.57;3.55;;;15.10;99.90;;;;;;4932635;29;20049;-91
2022/05/12 07:49:32;;;;;;;8.07;3.00;;;15.20;99.90;;;;;;4929244;29;20044;-89
2022/05/12 07:51:59;;;;;;;10.35;3.55;;;15.30;99.90;;;;;;4953726;29;20039;-89
2022/05/12 07:54:25;;;;;;;8.88;3.17;;;15.30;99.90;;;;;;4956085;29;20063;-88
2022/05/12 07:56:51;;;;;;;9.40;2.80;;;15.40;99.90;;;;;;4938945;29;20106;-91
2022/05/12 07:59:16;;;;;;;9.48;2.80;;;15.50;99.90;;;;;;4953917;29;20047;-91
2022/05/12 08:01:42;;;;;;;8.40;2.83;;;15.60;99.90;;;;;;4920074;29;20055;-89
2022/05/12 08:04:07;;;;;;;6.05;2.25;;;15.70;99.90;;;;;;4951667;29;20094;-88
2022/05/12 08:06:33;;;;;;;7.93;3.00;;;15.80;99.90;;;;;;4951452;29;20433;-89
2022/05/12 08:08:59;;;;;;;9.48;3.00;;;15.90;99.90;;;;;;4932313;29;20482;-92
2022/05/12 08:11:24;;;;;;;9.93;2.42;;;16.10;99.90;;;;;;4947146;29;20043;-89
2022/05/12 08:13:50;;;;;;;8.75;2.53;;;16.10;99.90;;;;;;4938663;29;20438;-94
2022/05/12 08:16:18;;;;;;;6.88;2.90;;;16.20;99.90;;;;;;4899390;29;20047;-91
2022/05/12 08:18:45;;;;;;;10.20;2.67;;;16.20;99.90;;;;;;4932413;29;20099;-89
2022/05/12 08:21:12;;;;;;;8.32;2.63;;;16.30;99.90;;;;;;4935816;29;20047;-88
2022/05/12 08:23:38;;;;;;;7.43;2.60;;;16.20;99.90;;;;;;4935198;29;20457;-95
2022/05/12 08:26:04;;;;;;;10.15;2.50;;;16.30;99.90;;;;;;4950065;28;20071;-90
2022/05/12 08:28:30;;;;;;;7.68;2.40;;;16.30;99.90;;;;;;4918443;29;20035;-93
2022/05/12 08:30:56;;;;;;;8.45;2.58;;;16.40;99.90;;;;;;4919456;29;20550;-93
2022/05/12 08:33:22;;;;;;;9.13;2.60;;;16.40;99.90;;;;;;4918993;29;20115;-94
2022/05/12 08:35:48;;;;;;;10.90;2.97;;;16.50;99.90;;;;;;4954500;29;20059;-93
2022/05/12 08:38:15;;;;;;;8.10;2.70;;;16.60;99.90;;;;;;4939438;29;20047;-95
2022/05/12 08:40:43;;;;;;;8.38;2.58;;;16.70;99.90;;;;;;4963960;29;20047;-96
2022/05/12 08:43:15;;;;;;;9.90;2.47;;;16.90;99.90;;;;;;4941339;29;20039;-95
2022/05/12 08:45:43;;;;;;;6.00;2.30;;;17.00;99.90;;;;;;4953723;29;20050;-95
2022/05/12 08:48:12;;;;;;;8.73;2.40;;;17.00;99.90;;;;;;4938852;29;20043;-92
2022/05/12 08:50:39;;;;;;;8.57;2.42;;;17.00;99.90;;;;;;4937067;29;20122;-92
2022/05/12 08:53:16;;;;;;;7.22;2.42;;;16.90;99.90;;;;;;4944808;29;20054;-91
2022/05/12 08:55:46;;;;;;;7.72;2.22;;;16.80;99.90;;;;;;4939125;29;20054;-93
2022/05/12 08:58:20;;;;;;;9.70;2.22;;;16.80;99.90;;;;;;4930346;29;20039;-94
2022/05/12 09:01:13;;;;;;;6.72;2.15;;;16.80;99.90;;;;;;4943655;29;20381;-91
2022/05/12 09:04:23;;;;;;;7.65;2.20;;;16.80;99.90;;;;;;4940813;29;20066;-96
2022/05/12 09:07:07;;;;;;;8.75;2.20;;;16.70;99.90;;;;;;4863963;29;20067;-94
2022/05/12 09:09:48;;;;;;;7.60;2.30;;;16.80;99.90;;;;;;4868572;29;20068;-94
2022/05/12 09:12:37;;;;;;;6.75;2.17;;;16.80;99.90;;;;;;4865290;29;20113;-96
2022/05/12 09:15:10;;;;;;;7.68;2.15;;;16.80;99.90;;;;;;4846233;29;20061;-96
2022/05/12 09:17:51;;;;;;;7.43;2.25;;;16.70;99.90;;;;;;4847219;29;20065;-96
2022/05/12 09:20:17;;;;;;;8.07;2.65;;;16.80;99.90;;;;;;4851702;29;20065;-92
2022/05/12 09:22:43;;;;;;;13.98;3.20;;;16.80;99.90;;;;;;4849574;29;20061;-96
2022/05/12 09:25:10;;;;;;;10.75;2.70;;;16.80;99.90;;;;;;4851959;29;20056;-96
2022/05/12 09:27:39;;;;;;;9.32;2.20;;;16.90;99.90;;;;;;4860012;29;20105;-89
2022/05/12 09:30:09;;;;;;;8.68;2.40;;;17.00;99.90;;;;;;4882704;29;20061;-96
2022/05/12 09:32:38;;;;;;;6.65;2.05;;;17.10;99.90;;;;;;4867496;29;20048;-96
2022/05/12 09:35:06;;;;;;;6.57;2.10;;;17.20;99.90;;;;;;4893245;29;20061;-95
2022/05/12 09:37:32;;;;;;;6.97;2.17;;;17.20;99.90;;;;;;4868778;29;20057;-96
2022/05/12 09:40:15;;;;;;;8.48;2.17;;;17.20;99.90;;;;;;4870369;29;20166;-93
2022/05/12 09:42:45;;;;;;;8.82;2.10;;;17.10;99.90;;;;;;4921416;29;20055;-93
2022/05/12 09:45:24;;;;;;;6.53;2.10;;;17.00;99.90;;;;;;4932014;29;20086;-95
2022/05/12 09:47:50;;;;;;;8.85;2.38;;;17.00;99.90;;;;;;4932149;29;20051;-95
2022/05/12 09:50:25;;;;;;;6.38;2.33;;;17.10;99.90;;;;;;4941264;29;20062;-96
2022/05/12 09:52:59;;;;;;;7.35;1.90;;;17.00;99.90;;;;;;4942683;29;20054;-94
2022/05/12 09:55:38;;;;;;;7.50;2.10;;;16.90;99.90;;;;;;4950555;29;20043;-93
2022/05/12 09:58:25;;;;;;;7.82;2.60;;;16.70;99.90;;;;;;4949504;29;20035;-95
2022/05/12 10:01:15;;;;;;;7.05;1.88;;;16.70;99.90;;;;;;4963421;29;20075;-96
2022/05/12 10:09:21;;;;;;;8.07;2.60;;;16.60;99.90;;;;;;4943505;29;20055;-91
2022/05/12 10:12:17;;;;;;;8.00;2.03;;;16.70;99.90;;;;;;4952194;29;20031;-96
2022/05/12 10:15:03;;;;;;;6.13;2.03;;;16.90;99.90;;;;;;4941178;29;20142;-92
2022/05/12 10:17:45;;;;;;;5.88;1.83;;;17.10;99.90;;;;;;4946586;29;20058;-95
2022/05/12 10:20:20;;;;;;;6.45;2.00;;;17.30;99.90;;;;;;4928396;29;20055;-95
2022/05/12 10:23:05;;;;;;;7.32;1.85;;;17.40;99.90;;;;;;4944553;29;20111;-94
2022/05/12 10:25:55;;;;;;;8.32;2.15;;;17.50;99.90;;;;;;4964690;29;20094;-95
2022/05/12 10:28:44;;;;;;;6.82;1.75;;;17.50;99.90;;;;;;4947789;29;20404;-96
2022/05/12 10:31:31;;;;;;;7.35;1.95;;;17.60;99.90;;;;;;4947381;29;20046;-96
2022/05/12 10:34:15;;;;;;;8.13;2.17;;;17.70;99.90;;;;;;4964725;29;20043;-94
2022/05/12 10:36:59;;;;;;;7.78;1.75;;;17.70;99.90;;;;;;4960552;29;20049;-92
2022/05/12 10:39:37;;;;;;;9.30;1.85;;;17.70;99.90;;;;;;4961041;29;20043;-96
2022/05/12 10:42:30;;;;;;;7.47;1.90;;;17.70;99.90;;;;;;4934685;29;20043;-96
2022/05/12 10:45:27;;;;;;;7.75;1.95;;;17.90;99.90;;;;;;4956513;28;20496;-96
2022/05/12 10:48:03;;;;;;;6.28;1.60;;;18.00;99.90;;;;;;4948064;29;20336;-92
2022/05/12 10:50:49;;;;;;;7.20;1.95;;;18.20;99.90;;;;;;4945585;29;20048;-95
2022/05/12 10:53:32;;;;;;;6.35;1.75;;;18.20;99.90;;;;;;4944224;28;20035;-93
2022/05/12 10:56:19;;;;;;;7.25;1.95;;;18.20;99.90;;;;;;4944599;29;20082;-94
2022/05/12 10:59:17;;;;;;;6.55;1.73;;;18.30;99.90;;;;;;4949793;29;20514;-95
2022/05/12 11:01:56;;;;;;;6.28;2.13;;;18.40;99.90;;;;;;5012414;23;20147;-90
2022/05/12 11:04:34;;;;;;;7.72;2.30;;;18.40;99.90;;;;;;5063235;23;20056;-93
2022/05/12 11:07:06;;;;;;;7.05;1.75;;;18.50;99.90;;;;;;4948613;29;20328;-94
2022/05/12 11:09:46;;;;;;;8.27;1.98;;;18.50;99.90;;;;;;4943248;29;20107;-90
2022/05/12 11:12:23;;;;;;;4.53;1.38;;;18.50;99.90;;;;;;4937433;29;20032;-90
2022/05/12 11:15:03;;;;;;;5.68;1.52;;;18.50;99.90;;;;;;4941453;29;20044;-90
2022/05/12 11:17:46;;;;;;;5.25;1.48;;;18.40;99.20;;;;;;4939347;29;20448;-94
2022/05/12 11:20:34;;;;;;;16.23;3.20;;;18.40;99.90;;;;;;4937477;29;20043;-91
2022/05/12 11:23:12;;;;;;;6.32;1.60;;;18.50;99.60;;;;;;4938060;29;20451;-92
2022/05/12 11:25:44;;;;;;;9.75;1.40;;;18.50;99.90;;;;;;4936826;29;20050;-93
2022/05/12 11:31:42;;;;;;;6.25;1.33;;;18.70;99.80;;;;;;4955180;29;20040;-95
2022/05/12 11:34:14;;;;;;;5.32;1.30;;;18.80;99.90;;;;;;4946975;29;20044;-94
2022/05/12 11:36:48;;;;;;;7.25;1.67;;;18.70;98.90;;;;;;4943455;29;20043;-95
2022/05/12 11:39:40;;;;;;;5.45;1.30;;;18.80;98.00;;;;;;4942108;29;20051;-88
2022/05/12 11:42:25;;;;;;;4.75;1.52;;;18.80;95.70;;;;;;4934508;29;20067;-95
2022/05/12 11:45:18;;;;;;;4.05;1.30;;;18.80;98.10;;;;;;4940732;29;20079;-96
2022/05/12 11:47:53;;;;;;;4.80;1.50;;;18.70;96.90;;;;;;4939561;29;20201;-94
2022/05/12 11:50:47;;;;;;;6.80;1.50;;;18.70;97.40;;;;;;4939435;29;20048;-92
2022/05/12 11:53:22;;;;;;;4.85;1.40;;;18.60;95.70;;;;;;4942340;29;20397;-93
2022/05/12 11:56:36;;;;;;;4.50;1.42;;;18.60;95.90;;;;;;4948041;29;20055;-96
2022/05/12 11:59:17;;;;;;;5.95;1.40;;;18.60;97.90;;;;;;4924611;29;20051;-92
2022/05/12 12:01:54;;;;;;;;;;;18.80;95.70;;;;;;4918904;29;20059;-95
2022/05/12 12:04:39;;;;;;;5.00;1.10;;;18.70;93.40;;;;;;5020828;23;19929;-94
2022/05/12 12:07:07;;;;;;;4.40;1.38;;;18.90;96.50;;;;;;4938677;29;20142;-92
2022/05/12 12:09:35;;;;;;;4.80;1.45;;;19.00;95.60;;;;;;4939876;29;20044;-95
2022/05/12 12:12:08;;;;;;;5.70;1.20;;;19.00;94.70;;;;;;4926687;29;20062;-88
2022/05/12 12:14:42;;;;;;;4.78;0.98;;;19.00;92.70;;;;;;4908490;29;20292;-94
2022/05/12 12:17:24;;;;;;;3.50;1.00;;;19.00;90.90;;;;;;4942890;29;20048;-95
2022/05/12 12:19:52;;;;;;;2.55;1.08;;;19.00;90.80;;;;;;4909416;29;20063;-96
2022/05/12 12:22:26;;;;;;;3.80;1.13;;;19.00;90.90;;;;;;4921836;29;20090;-95
2022/05/12 12:25:33;;;;;;;6.57;1.30;;;18.90;90.50;;;;;;4923117;29;20047;-96
2022/05/12 12:27:59;;;;;;;4.15;1.35;;;18.90;91.00;;;;;;4942147;29;20039;-94
2022/05/12 12:30:30;;;;;;;5.55;1.52;;;18.70;92.10;;;;;;4928412;29;20107;-96
2022/05/12 12:33:18;;;;;;;5.15;1.20;;;18.70;90.90;;;;;;4946552;29;20047;-95
2022/05/12 12:35:52;;;;;;;5.63;1.17;;;18.80;92.10;;;;;;5052911;23;20055;-93
2022/05/12 12:38:46;;;;;;;6.35;1.20;;;18.90;88.90;;;;;;4943625;29;20094;-96
2022/05/12 12:41:38;;;;;;;9.57;1.45;;;18.90;88.80;;;;;;4940485;29;20048;-93
2022/05/12 12:44:11;;;;;;;6.35;1.40;;;18.90;86.80;;;;;;4934871;29;20059;-96
2022/05/12 12:47:15;;;;;;;6.25;1.58;;;18.90;90.00;;;;;;4963536;29;20062;-96
2022/05/12 12:50:08;;;;;;;4.78;1.30;;;18.90;88.00;;;;;;4939098;29;20099;-95
2022/05/12 12:52:43;;;;;;;6.93;1.48;;;18.80;89.30;;;;;;4925958;29;20047;-96
2022/05/12 12:58:11;;;;;;;5.05;1.40;;;18.90;86.10;;;;;;4936401;29;20056;-95
2022/05/12 13:00:37;;;;;;;4.90;1.30;;;18.90;84.80;;;;;;4923560;29;20054;-95
2022/05/12 13:03:21;;;;;;;7.05;1.42;;;18.90;88.40;;;;;;4951798;29;20058;-96
2022/05/12 13:05:48;;;;;;;4.35;1.10;;;19.00;85.30;;;;;;4940787;29;20040;-95
2022/05/12 13:08:27;;;;;;;4.13;1.10;;;19.10;86.90;;;;;;4959034;29;20051;-96
2022/05/12 13:10:59;;;;;;;5.03;1.10;;;19.20;84.00;;;;;;4926976;29;20058;-96
2022/05/12 13:13:26;;;;;;;6.82;1.30;;;19.30;83.10;;;;;;4920683;29;20066;-92
2022/05/12 13:16:01;;;;;;;4.07;1.27;;;19.30;79.70;;;;;;4937909;29;20433;-92
2022/05/12 13:18:46;;;;;;;5.57;1.10;;;19.20;77.50;;;;;;4938605;29;20083;-89
2022/05/12 13:21:23;;;;;;;4.85;1.30;;;19.30;77.30;;;;;;4938429;29;20040;-89
2022/05/12 13:24:13;;;;;;;6.13;1.15;;;19.20;72.70;;;;;;4940242;29;20043;-94
2022/05/12 13:26:44;;;;;;;4.70;1.20;;;19.10;73.70;;;;;;4962020;29;20049;-92
2022/05/12 13:29:11;;;;;;;7.90;1.25;;;19.00;75.10;;;;;;4943689;29;20170;-92
2022/05/12 13:31:41;;;;;;;2.83;1.00;;;19.00;75.90;;;;;;4975151;29;20058;-89